sensor_id;sensor_type;location;lat;lon;timestamp;temperature;humidity
26599;DHT22;14240;51.064;16.612;2024-02-14T00:00:03;3.80;99.90
26599;DHT22;14240;51.064;16.612;2024-02-14T00:02:28;3.90;99.90
26599;DHT22;14240;51.064;16.612;2024-02-14T00:04:54;3.90;99.90
26599;DHT22;14240;51.064;16.612;2024-02-14T00:07:20;3.90;99.90
26599;DHT22;14240;51.064;16.612;2024-02-14T00:09:47;3.80;99.90
26599;DHT22;14240;51.064;16.612;2024-02-14T00:12:13;3.80;99.90
26599;DHT22;14240;51.064;16.612;2024-02-14T00:14:39;3.80;99.90
26599;DHT22;14240;51.064;16.612;2024-02-14T00:17:04;3.80;99.90
26599;DHT22;14240;51.064;16.612;2024-02-14T00:19:31;3.80;99.90
26599;DHT22;14240;51.064;16.612;2024-02-14T00:21:57;3.80;99.90
26599;DHT22;14240;51.064;16.612;2024-02-14T00:24:23;3.40;99.90
26599;DHT22;14240;51.064;16.612;2024-02-14T00:26:52;3.80;99.90
26599;DHT22;14240;51.064;16.612;2024-02-14T00:29:18;3.80;99.90
26599;DHT22;14240;51.064;16.612;2024-02-14T00:31:44;3.80;99.90
26599;DHT22;14240;51.064;16.612;2024-02-14T00:34:10;3.70;99.90
26599;DHT22;14240;51.064;16.612;2024-02-14T00:36:36;3.70;99.90
26599;DHT22;14240;51.064;16.612;2024-02-14T00:39:02;3.80;99.90
26599;DHT22;14240;51.064;16.612;2024-02-14T00:41:28;3.70;99.90
26599;DHT22;14240;51.064;16.612;2024-02-14T00:43:56;3.70;99.90
26599;DHT22;14240;51.064;16.612;2024-02-14T00:46:22;3.70;99.90
26599;DHT22;14240;51.064;16.612;2024-02-14T00:48:47;3.70;99.90
26599;DHT22;14240;51.064;16.612;2024-02-14T00:51:13;3.70;99.90
26599;DHT22;14240;51.064;16.612;2024-02-14T00:53:39;3.70;99.90
26599;DHT22;14240;51.064;16.612;2024-02-14T00:56:05;3.30;99.90
26599;DHT22;14240;51.064;16.612;2024-02-14T00:58:31;3.70;99.90
26599;DHT22;14240;51.064;16.612;2024-02-14T01:00:57;3.70;99.90
26599;DHT22;14240;51.064;16.612;2024-02-14T01:03:23;3.70;99.90
26599;DHT22;14240;51.064;16.612;2024-02-14T01:05:49;3.70;99.90
26599;DHT22;14240;51.064;16.612;2024-02-14T01:08:15;3.70;99.90
26599;DHT22;14240;51.064;16.612;2024-02-14T01:10:41;3.60;99.90
26599;DHT22;14240;51.064;16.612;2024-02-14T01:13:07;3.70;99.90
26599;DHT22;14240;51.064;16.612;2024-02-14T01:15:32;3.60;99.90
26599;DHT22;14240;51.064;16.612;2024-02-14T01:18:01;3.60;99.90
26599;DHT22;14240;51.064;16.612;2024-02-14T01:20:26;3.60;99.90
26599;DHT22;14240;51.064;16.612;2024-02-14T01:22:52;3.60;99.90
26599;DHT22;14240;51.064;16.612;2024-02-14T01:25:18;3.60;99.90
26599;DHT22;14240;51.064;16.612;2024-02-14T01:27:44;3.60;99.90
26599;DHT22;14240;51.064;16.612;2024-02-14T01:30:10;3.60;99.90
26599;DHT22;14240;51.064;16.612;2024-02-14T01:32:37;3.70;99.90
26599;DHT22;14240;51.064;16.612;2024-02-14T01:35:03;3.60;99.90
26599;DHT22;14240;51.064;16.612;2024-02-14T01:37:29;3.60;99.90
26599;DHT22;14240;51.064;16.612;2024-02-14T01:39:55;3.60;99.90
26599;DHT22;14240;51.064;16.612;2024-02-14T01:42:21;3.60;99.90
26599;DHT22;14240;51.064;16.612;2024-02-14T01:44:47;3.60;99.90
26599;DHT22;14240;51.064;16.612;2024-02-14T01:47:13;3.60;99.90
26599;DHT22;14240;51.064;16.612;2024-02-14T01:49:39;3.60;99.90
26599;DHT22;14240;51.064;16.612;2024-02-14T01:52:09;3.60;99.90
26599;DHT22;14240;51.064;16.612;2024-02-14T01:54:35;3.60;99.90
26599;DHT22;14240;51.064;16.612;2024-02-14T01:57:02;3.60;99.90
26599;DHT22;14240;51.064;16.612;2024-02-14T01:59:28;3.60;99.90
26599;DHT22;14240;51.064;16.612;2024-02-14T02:01:54;3.50;99.90
26599;DHT22;14240;51.064;16.612;2024-02-14T02:04:21;3.60;99.90
26599;DHT22;14240;51.064;16.612;2024-02-14T02:06:47;3.60;99.90
26599;DHT22;14240;51.064;16.612;2024-02-14T02:09:12;3.60;99.90
26599;DHT22;14240;51.064;16.612;2024-02-14T02:11:51;3.50;99.90
26599;DHT22;14240;51.064;16.612;2024-02-14T02:14:19;3.50;99.90
26599;DHT22;14240;51.064;16.612;2024-02-14T02:16:45;3.50;99.90
26599;DHT22;14240;51.064;16.612;2024-02-14T02:19:11;3.50;99.90
26599;DHT22;14240;51.064;16.612;2024-02-14T02:21:38;3.50;99.90
26599;DHT22;14240;51.064;16.612;2024-02-14T02:24:04;3.50;99.90
26599;DHT22;14240;51.064;16.612;2024-02-14T02:26:30;3.50;99.90
26599;DHT22;14240;51.064;16.612;2024-02-14T02:28:56;3.40;99.90
26599;DHT22;14240;51.064;16.612;2024-02-14T02:31:22;3.40;99.90
26599;DHT22;14240;51.064;16.612;2024-02-14T02:33:48;3.40;99.90
26599;DHT22;14240;51.064;16.612;2024-02-14T02:36:15;3.40;99.90
26599;DHT22;14240;51.064;16.612;2024-02-14T02:38:41;3.40;99.90
26599;DHT22;14240;51.064;16.612;2024-02-14T02:41:07;3.40;99.90
26599;DHT22;14240;51.064;16.612;2024-02-14T02:43:33;3.40;99.90
26599;DHT22;14240;51.064;16.612;2024-02-14T02:46:00;3.40;99.90
26599;DHT22;14240;51.064;16.612;2024-02-14T02:48:25;3.40;99.90
26599;DHT22;14240;51.064;16.612;2024-02-14T02:50:51;3.40;99.90
26599;DHT22;14240;51.064;16.612;2024-02-14T02:53:18;3.40;99.90
26599;DHT22;14240;51.064;16.612;2024-02-14T02:55:44;3.40;99.90
26599;DHT22;14240;51.064;16.612;2024-02-14T02:58:11;3.30;99.90
26599;DHT22;14240;51.064;16.612;2024-02-14T03:00:37;3.30;99.90
26599;DHT22;14240;51.064;16.612;2024-02-14T03:03:03;3.40;99.90
26599;DHT22;14240;51.064;16.612;2024-02-14T03:05:30;3.30;99.90
26599;DHT22;14240;51.064;16.612;2024-02-14T03:07:59;3.30;99.90
26599;DHT22;14240;51.064;16.612;2024-02-14T03:10:25;3.30;99.90
26599;DHT22;14240;51.064;16.612;2024-02-14T03:12:51;3.30;99.90
26599;DHT22;14240;51.064;16.612;2024-02-14T03:15:17;3.30;99.90
26599;DHT22;14240;51.064;16.612;2024-02-14T03:17:44;3.40;99.90
26599;DHT22;14240;51.064;16.612;2024-02-14T03:20:12;3.30;99.90
26599;DHT22;14240;51.064;16.612;2024-02-14T03:22:42;3.30;99.90
26599;DHT22;14240;51.064;16.612;2024-02-14T03:25:17;3.40;99.90
26599;DHT22;14240;51.064;16.612;2024-02-14T03:27:43;3.30;99.90
26599;DHT22;14240;51.064;16.612;2024-02-14T03:30:13;3.40;99.90
26599;DHT22;14240;51.064;16.612;2024-02-14T03:32:45;3.30;99.90
26599;DHT22;14240;51.064;16.612;2024-02-14T03:35:12;3.30;99.90
26599;DHT22;14240;51.064;16.612;2024-02-14T03:37:40;3.30;99.90
26599;DHT22;14240;51.064;16.612;2024-02-14T03:40:06;3.30;99.90
26599;DHT22;14240;51.064;16.612;2024-02-14T03:42:34;3.30;99.90
26599;DHT22;14240;51.064;16.612;2024-02-14T03:45:00;3.30;99.90
26599;DHT22;14240;51.064;16.612;2024-02-14T03:47:31;3.20;99.90
26599;DHT22;14240;51.064;16.612;2024-02-14T03:50:01;3.20;99.90
26599;DHT22;14240;51.064;16.612;2024-02-14T03:52:29;3.20;99.90
26599;DHT22;14240;51.064;16.612;2024-02-14T03:54:57;3.20;99.90
26599;DHT22;14240;51.064;16.612;2024-02-14T03:57:24;3.20;99.90
26599;DHT22;14240;51.064;16.612;2024-02-14T03:59:51;3.10;99.90
26599;DHT22;14240;51.064;16.612;2024-02-14T04:02:17;3.10;99.90
26599;DHT22;14240;51.064;16.612;2024-02-14T04:04:44;3.10;99.90
26599;DHT22;14240;51.064;16.612;2024-02-14T04:07:12;3.10;99.90
26599;DHT22;14240;51.064;16.612;2024-02-14T04:09:37;3.10;99.90
26599;DHT22;14240;51.064;16.612;2024-02-14T04:12:04;3.10;99.90
26599;DHT22;14240;51.064;16.612;2024-02-14T04:14:30;3.10;99.90
26599;DHT22;14240;51.064;16.612;2024-02-14T04:16:56;3.10;99.90
26599;DHT22;14240;51.064;16.612;2024-02-14T04:19:22;3.10;99.90
26599;DHT22;14240;51.064;16.612;2024-02-14T04:21:47;3.10;99.90
26599;DHT22;14240;51.064;16.612;2024-02-14T04:24:14;3.10;99.90
26599;DHT22;14240;51.064;16.612;2024-02-14T04:26:39;3.10;99.90
26599;DHT22;14240;51.064;16.612;2024-02-14T04:29:05;3.10;99.90
26599;DHT22;14240;51.064;16.612;2024-02-14T04:31:31;3.20;99.90
26599;DHT22;14240;51.064;16.612;2024-02-14T04:33:57;3.20;99.90
26599;DHT22;14240;51.064;16.612;2024-02-14T04:36:23;3.20;99.90
26599;DHT22;14240;51.064;16.612;2024-02-14T04:38:49;3.20;99.90
26599;DHT22;14240;51.064;16.612;2024-02-14T04:41:16;3.20;99.90
26599;DHT22;14240;51.064;16.612;2024-02-14T04:43:42;3.20;99.90
26599;DHT22;14240;51.064;16.612;2024-02-14T04:46:08;3.20;99.90
26599;DHT22;14240;51.064;16.612;2024-02-14T04:48:34;3.20;99.90
26599;DHT22;14240;51.064;16.612;2024-02-14T04:51:00;3.20;99.90
26599;DHT22;14240;51.064;16.612;2024-02-14T04:53:25;3.20;99.90
26599;DHT22;14240;51.064;16.612;2024-02-14T04:55:51;3.20;99.90
26599;DHT22;14240;51.064;16.612;2024-02-14T04:58:17;3.20;99.90
26599;DHT22;14240;51.064;16.612;2024-02-14T05:00:42;3.20;99.90
26599;DHT22;14240;51.064;16.612;2024-02-14T05:03:08;3.20;99.90
26599;DHT22;14240;51.064;16.612;2024-02-14T05:05:35;3.20;99.90
26599;DHT22;14240;51.064;16.612;2024-02-14T05:08:01;3.20;99.90
26599;DHT22;14240;51.064;16.612;2024-02-14T05:10:28;3.10;99.90
26599;DHT22;14240;51.064;16.612;2024-02-14T05:12:54;3.10;99.90
26599;DHT22;14240;51.064;16.612;2024-02-14T05:15:20;3.10;99.90
26599;DHT22;14240;51.064;16.612;2024-02-14T05:17:46;3.10;99.90
26599;DHT22;14240;51.064;16.612;2024-02-14T05:20:12;3.10;99.90
26599;DHT22;14240;51.064;16.612;2024-02-14T05:22:38;3.10;99.90
26599;DHT22;14240;51.064;16.612;2024-02-14T05:25:04;3.80;99.90
26599;DHT22;14240;51.064;16.612;2024-02-14T05:27:33;3.10;99.90
26599;DHT22;14240;51.064;16.612;2024-02-14T05:30:00;3.10;99.90
26599;DHT22;14240;51.064;16.612;2024-02-14T05:32:25;3.10;99.90
26599;DHT22;14240;51.064;16.612;2024-02-14T05:34:51;3.10;99.90
26599;DHT22;14240;51.064;16.612;2024-02-14T05:37:17;3.00;99.90
26599;DHT22;14240;51.064;16.612;2024-02-14T05:39:42;3.10;99.90
26599;DHT22;14240;51.064;16.612;2024-02-14T05:42:08;3.00;99.90
26599;DHT22;14240;51.064;16.612;2024-02-14T05:44:40;3.00;99.90
26599;DHT22;14240;51.064;16.612;2024-02-14T05:47:06;2.90;99.90
26599;DHT22;14240;51.064;16.612;2024-02-14T05:49:31;2.80;99.90
26599;DHT22;14240;51.064;16.612;2024-02-14T05:51:57;2.80;99.90
26599;DHT22;14240;51.064;16.612;2024-02-14T05:54:23;2.80;99.90
26599;DHT22;14240;51.064;16.612;2024-02-14T05:56:48;2.80;99.90
26599;DHT22;14240;51.064;16.612;2024-02-14T05:59:14;2.80;99.90
26599;DHT22;14240;51.064;16.612;2024-02-14T06:01:40;2.90;99.90
26599;DHT22;14240;51.064;16.612;2024-02-14T06:04:05;2.90;99.90
26599;DHT22;14240;51.064;16.612;2024-02-14T06:06:31;2.90;99.90
26599;DHT22;14240;51.064;16.612;2024-02-14T06:08:57;3.00;99.90
26599;DHT22;14240;51.064;16.612;2024-02-14T06:11:23;3.00;99.90
26599;DHT22;14240;51.064;16.612;2024-02-14T06:13:48;3.00;99.90
26599;DHT22;14240;51.064;16.612;2024-02-14T06:16:14;3.00;99.90
26599;DHT22;14240;51.064;16.612;2024-02-14T06:18:40;3.00;99.90
26599;DHT22;14240;51.064;16.612;2024-02-14T06:21:06;3.10;99.90
26599;DHT22;14240;51.064;16.612;2024-02-14T06:23:32;3.10;99.90
26599;DHT22;14240;51.064;16.612;2024-02-14T06:26:00;3.10;99.90
26599;DHT22;14240;51.064;16.612;2024-02-14T06:28:26;3.10;99.90
26599;DHT22;14240;51.064;16.612;2024-02-14T06:30:51;3.10;99.90
26599;DHT22;14240;51.064;16.612;2024-02-14T06:33:17;3.10;99.90
26599;DHT22;14240;51.064;16.612;2024-02-14T06:35:44;3.10;99.90
26599;DHT22;14240;51.064;16.612;2024-02-14T06:38:09;3.20;99.90
26599;DHT22;14240;51.064;16.612;2024-02-14T06:40:35;3.20;99.90
26599;DHT22;14240;51.064;16.612;2024-02-14T06:43:01;3.20;99.90
26599;DHT22;14240;51.064;16.612;2024-02-14T06:45:27;3.30;99.90
26599;DHT22;14240;51.064;16.612;2024-02-14T06:47:55;3.30;99.90
26599;DHT22;14240;51.064;16.612;2024-02-14T06:50:21;3.40;99.90
26599;DHT22;14240;51.064;16.612;2024-02-14T06:52:47;3.50;99.90
26599;DHT22;14240;51.064;16.612;2024-02-14T06:55:20;3.50;99.90
26599;DHT22;14240;51.064;16.612;2024-02-14T06:57:55;3.50;99.90
26599;DHT22;14240;51.064;16.612;2024-02-14T07:00:37;3.60;99.90
26599;DHT22;14240;51.064;16.612;2024-02-14T07:03:18;3.70;99.90
26599;DHT22;14240;51.064;16.612;2024-02-14T07:05:56;3.70;99.90
26599;DHT22;14240;51.064;16.612;2024-02-14T07:08:35;3.80;99.90
26599;DHT22;14240;51.064;16.612;2024-02-14T07:11:12;4.00;99.90
26599;DHT22;14240;51.064;16.612;2024-02-14T07:13:41;4.20;99.90
26599;DHT22;14240;51.064;16.612;2024-02-14T07:16:07;4.40;99.90
26599;DHT22;14240;51.064;16.612;2024-02-14T07:18:34;4.50;99.90
26599;DHT22;14240;51.064;16.612;2024-02-14T07:21:00;4.70;99.90
26599;DHT22;14240;51.064;16.612;2024-02-14T07:23:27;4.80;99.90
26599;DHT22;14240;51.064;16.612;2024-02-14T07:25:53;5.10;99.90
26599;DHT22;14240;51.064;16.612;2024-02-14T07:28:19;5.30;99.90
26599;DHT22;14240;51.064;16.612;2024-02-14T07:30:45;5.50;99.90
26599;DHT22;14240;51.064;16.612;2024-02-14T07:33:10;5.60;99.90
26599;DHT22;14240;51.064;16.612;2024-02-14T07:35:39;5.70;99.90
26599;DHT22;14240;51.064;16.612;2024-02-14T07:38:05;5.80;99.90
26599;DHT22;14240;51.064;16.612;2024-02-14T07:40:31;5.90;99.90
26599;DHT22;14240;51.064;16.612;2024-02-14T07:42:57;6.00;99.90
26599;DHT22;14240;51.064;16.612;2024-02-14T07:45:23;6.10;99.90
26599;DHT22;14240;51.064;16.612;2024-02-14T07:47:52;6.20;99.90
26599;DHT22;14240;51.064;16.612;2024-02-14T07:50:18;6.30;99.90
26599;DHT22;14240;51.064;16.612;2024-02-14T07:52:44;6.50;99.90
26599;DHT22;14240;51.064;16.612;2024-02-14T07:55:10;6.70;99.90
26599;DHT22;14240;51.064;16.612;2024-02-14T07:57:38;6.90;99.90
26599;DHT22;14240;51.064;16.612;2024-02-14T08:00:08;7.10;99.90
26599;DHT22;14240;51.064;16.612;2024-02-14T08:02:34;7.30;99.90
26599;DHT22;14240;51.064;16.612;2024-02-14T08:05:01;7.30;99.90
26599;DHT22;14240;51.064;16.612;2024-02-14T08:07:27;7.40;99.90
26599;DHT22;14240;51.064;16.612;2024-02-14T08:09:53;7.40;99.90
26599;DHT22;14240;51.064;16.612;2024-02-14T08:12:19;7.50;99.90
26599;DHT22;14240;51.064;16.612;2024-02-14T08:14:45;7.60;99.90
26599;DHT22;14240;51.064;16.612;2024-02-14T08:17:12;7.80;99.90
26599;DHT22;14240;51.064;16.612;2024-02-14T08:19:38;7.90;99.90
26599;DHT22;14240;51.064;16.612;2024-02-14T08:22:05;8.00;99.90
26599;DHT22;14240;51.064;16.612;2024-02-14T08:24:31;8.10;99.90
26599;DHT22;14240;51.064;16.612;2024-02-14T08:26:57;8.40;99.90
26599;DHT22;14240;51.064;16.612;2024-02-14T08:29:23;8.70;99.90
26599;DHT22;14240;51.064;16.612;2024-02-14T08:31:49;9.20;99.90
26599;DHT22;14240;51.064;16.612;2024-02-14T08:34:15;9.70;99.90
26599;DHT22;14240;51.064;16.612;2024-02-14T08:36:42;10.10;99.90
26599;DHT22;14240;51.064;16.612;2024-02-14T08:39:08;10.40;99.90
26599;DHT22;14240;51.064;16.612;2024-02-14T08:41:38;10.60;99.90
26599;DHT22;14240;51.064;16.612;2024-02-14T08:44:06;10.70;99.90
26599;DHT22;14240;51.064;16.612;2024-02-14T08:46:32;10.80;99.90
26599;DHT22;14240;51.064;16.612;2024-02-14T08:49:00;10.90;99.90
26599;DHT22;14240;51.064;16.612;2024-02-14T08:51:28;11.10;99.90
26599;DHT22;14240;51.064;16.612;2024-02-14T08:53:53;11.40;99.90
26599;DHT22;14240;51.064;16.612;2024-02-14T08:56:21;11.60;99.90
26599;DHT22;14240;51.064;16.612;2024-02-14T08:58:48;11.90;99.90
26599;DHT22;14240;51.064;16.612;2024-02-14T09:01:14;12.30;99.90
26599;DHT22;14240;51.064;16.612;2024-02-14T09:03:41;12.70;99.90
26599;DHT22;14240;51.064;16.612;2024-02-14T09:06:15;13.20;99.90
26599;DHT22;14240;51.064;16.612;2024-02-14T09:08:44;13.80;99.90
26599;DHT22;14240;51.064;16.612;2024-02-14T09:11:09;14.20;99.90
26599;DHT22;14240;51.064;16.612;2024-02-14T09:13:35;14.50;99.90
26599;DHT22;14240;51.064;16.612;2024-02-14T09:16:01;14.50;99.90
26599;DHT22;14240;51.064;16.612;2024-02-14T09:18:27;14.50;99.90
26599;DHT22;14240;51.064;16.612;2024-02-14T09:20:52;14.40;99.90
26599;DHT22;14240;51.064;16.612;2024-02-14T09:23:18;14.40;99.90
26599;DHT22;14240;51.064;16.612;2024-02-14T09:25:46;14.40;99.90
26599;DHT22;14240;51.064;16.612;2024-02-14T09:28:18;14.40;99.90
26599;DHT22;14240;51.064;16.612;2024-02-14T09:30:44;14.50;99.90
26599;DHT22;14240;51.064;16.612;2024-02-14T09:33:10;14.70;99.90
26599;DHT22;14240;51.064;16.612;2024-02-14T09:35:35;14.80;99.90
26599;DHT22;14240;51.064;16.612;2024-02-14T09:38:03;14.90;99.90
26599;DHT22;14240;51.064;16.612;2024-02-14T09:40:29;15.00;99.90
26599;DHT22;14240;51.064;16.612;2024-02-14T09:42:56;15.00;99.90
26599;DHT22;14240;51.064;16.612;2024-02-14T09:45:26;15.00;99.90
26599;DHT22;14240;51.064;16.612;2024-02-14T09:47:54;15.00;99.90
26599;DHT22;14240;51.064;16.612;2024-02-14T09:50:20;15.20;99.90
26599;DHT22;14240;51.064;16.612;2024-02-14T09:52:48;15.40;99.90
26599;DHT22;14240;51.064;16.612;2024-02-14T09:55:17;15.60;99.90
26599;DHT22;14240;51.064;16.612;2024-02-14T09:57:43;15.80;99.90
26599;DHT22;14240;51.064;16.612;2024-02-14T10:00:12;16.20;99.90
26599;DHT22;14240;51.064;16.612;2024-02-14T10:02:41;16.50;99.90
26599;DHT22;14240;51.064;16.612;2024-02-14T10:05:07;16.60;99.90
26599;DHT22;14240;51.064;16.612;2024-02-14T10:07:43;16.50;99.90
26599;DHT22;14240;51.064;16.612;2024-02-14T10:10:10;16.40;99.90
26599;DHT22;14240;51.064;16.612;2024-02-14T10:12:36;16.30;99.90
26599;DHT22;14240;51.064;16.612;2024-02-14T10:15:02;16.20;99.90
26599;DHT22;14240;51.064;16.612;2024-02-14T10:17:32;16.10;99.90
26599;DHT22;14240;51.064;16.612;2024-02-14T10:19:59;15.90;99.90
26599;DHT22;14240;51.064;16.612;2024-02-14T10:22:32;15.80;99.90
26599;DHT22;14240;51.064;16.612;2024-02-14T10:24:57;15.70;99.90
26599;DHT22;14240;51.064;16.612;2024-02-14T10:27:23;15.60;99.90
26599;DHT22;14240;51.064;16.612;2024-02-14T10:29:49;15.40;99.90
26599;DHT22;14240;51.064;16.612;2024-02-14T10:32:15;15.30;99.90
26599;DHT22;14240;51.064;16.612;2024-02-14T10:34:43;15.10;99.70
26599;DHT22;14240;51.064;16.612;2024-02-14T10:37:14;15.00;99.90
26599;DHT22;14240;51.064;16.612;2024-02-14T10:39:41;14.90;99.90
26599;DHT22;14240;51.064;16.612;2024-02-14T10:42:07;14.80;99.90
26599;DHT22;14240;51.064;16.612;2024-02-14T10:44:34;14.80;99.90
26599;DHT22;14240;51.064;16.612;2024-02-14T10:47:02;14.80;99.90
26599;DHT22;14240;51.064;16.612;2024-02-14T10:49:33;14.70;99.70
26599;DHT22;14240;51.064;16.612;2024-02-14T10:52:00;14.50;99.60
26599;DHT22;14240;51.064;16.612;2024-02-14T10:54:30;14.50;99.90
26599;DHT22;14240;51.064;16.612;2024-02-14T10:56:58;14.40;99.90
26599;DHT22;14240;51.064;16.612;2024-02-14T10:59:25;14.40;99.90
26599;DHT22;14240;51.064;16.612;2024-02-14T11:01:51;14.40;99.90
26599;DHT22;14240;51.064;16.612;2024-02-14T11:04:18;14.40;99.90
26599;DHT22;14240;51.064;16.612;2024-02-14T11:06:48;14.30;99.80
26599;DHT22;14240;51.064;16.612;2024-02-14T11:09:14;14.30;99.70
26599;DHT22;14240;51.064;16.612;2024-02-14T11:11:44;14.30;99.90
26599;DHT22;14240;51.064;16.612;2024-02-14T11:14:15;14.30;99.90
26599;DHT22;14240;51.064;16.612;2024-02-14T11:16:44;14.30;99.90
26599;DHT22;14240;51.064;16.612;2024-02-14T11:19:11;14.30;99.90
26599;DHT22;14240;51.064;16.612;2024-02-14T11:21:40;14.30;99.60
26599;DHT22;14240;51.064;16.612;2024-02-14T11:24:09;14.20;99.70
26599;DHT22;14240;51.064;16.612;2024-02-14T11:26:55;14.10;99.90
26599;DHT22;14240;51.064;16.612;2024-02-14T11:29:28;14.00;99.90
26599;DHT22;14240;51.064;16.612;2024-02-14T11:32:01;14.00;99.90
26599;DHT22;14240;51.064;16.612;2024-02-14T11:34:28;13.90;99.90
26599;DHT22;14240;51.064;16.612;2024-02-14T11:36:54;13.80;99.90
26599;DHT22;14240;51.064;16.612;2024-02-14T11:39:22;13.70;99.90
26599;DHT22;14240;51.064;16.612;2024-02-14T11:41:48;13.60;99.90
26599;DHT22;14240;51.064;16.612;2024-02-14T11:44:14;13.60;99.90
26599;DHT22;14240;51.064;16.612;2024-02-14T11:46:39;13.60;99.90
26599;DHT22;14240;51.064;16.612;2024-02-14T11:49:07;13.50;99.90
26599;DHT22;14240;51.064;16.612;2024-02-14T11:51:34;13.50;99.90
26599;DHT22;14240;51.064;16.612;2024-02-14T11:54:01;13.40;99.90
26599;DHT22;14240;51.064;16.612;2024-02-14T11:56:39;13.40;99.90
26599;DHT22;14240;51.064;16.612;2024-02-14T11:59:06;13.50;99.90
26599;DHT22;14240;51.064;16.612;2024-02-14T12:01:37;13.50;99.90
26599;DHT22;14240;51.064;16.612;2024-02-14T12:04:07;13.60;99.90
26599;DHT22;14240;51.064;16.612;2024-02-14T12:06:38;13.60;99.90
26599;DHT22;14240;51.064;16.612;2024-02-14T12:09:07;13.60;99.90
26599;DHT22;14240;51.064;16.612;2024-02-14T12:11:37;13.60;99.90
26599;DHT22;14240;51.064;16.612;2024-02-14T12:14:05;13.50;99.90
26599;DHT22;14240;51.064;16.612;2024-02-14T12:16:31;13.50;99.90
26599;DHT22;14240;51.064;16.612;2024-02-14T12:19:07;13.40;99.90
26599;DHT22;14240;51.064;16.612;2024-02-14T12:21:37;13.40;99.90
26599;DHT22;14240;51.064;16.612;2024-02-14T12:24:11;13.40;99.90
26599;DHT22;14240;51.064;16.612;2024-02-14T12:26:40;13.30;99.90
26599;DHT22;14240;51.064;16.612;2024-02-14T12:29:07;13.20;99.90
26599;DHT22;14240;51.064;16.612;2024-02-14T12:31:34;13.20;99.90
26599;DHT22;14240;51.064;16.612;2024-02-14T12:34:03;13.20;99.90
26599;DHT22;14240;51.064;16.612;2024-02-14T12:36:33;13.10;99.90
26599;DHT22;14240;51.064;16.612;2024-02-14T12:39:00;13.10;99.90
26599;DHT22;14240;51.064;16.612;2024-02-14T12:41:28;13.10;99.90
26599;DHT22;14240;51.064;16.612;2024-02-14T12:43:58;13.10;99.90
26599;DHT22;14240;51.064;16.612;2024-02-14T12:46:24;13.10;99.90
26599;DHT22;14240;51.064;16.612;2024-02-14T12:48:50;13.20;99.90
26599;DHT22;14240;51.064;16.612;2024-02-14T12:51:16;13.20;99.90
26599;DHT22;14240;51.064;16.612;2024-02-14T12:53:41;13.10;99.90
26599;DHT22;14240;51.064;16.612;2024-02-14T12:56:08;13.20;99.90
26599;DHT22;14240;51.064;16.612;2024-02-14T12:58:33;13.20;99.90
26599;DHT22;14240;51.064;16.612;2024-02-14T13:00:59;13.10;99.90
26599;DHT22;14240;51.064;16.612;2024-02-14T13:03:26;13.10;99.90
26599;DHT22;14240;51.064;16.612;2024-02-14T13:05:53;13.10;99.90
26599;DHT22;14240;51.064;16.612;2024-02-14T13:08:20;13.10;99.90
26599;DHT22;14240;51.064;16.612;2024-02-14T13:10:46;13.10;99.90
26599;DHT22;14240;51.064;16.612;2024-02-14T13:13:12;13.00;99.90
26599;DHT22;14240;51.064;16.612;2024-02-14T13:15:39;13.00;99.90
26599;DHT22;14240;51.064;16.612;2024-02-14T13:18:06;13.00;99.90
26599;DHT22;14240;51.064;16.612;2024-02-14T13:20:31;13.00;99.90
26599;DHT22;14240;51.064;16.612;2024-02-14T13:22:57;12.90;99.90
26599;DHT22;14240;51.064;16.612;2024-02-14T13:25:24;12.90;99.90
26599;DHT22;14240;51.064;16.612;2024-02-14T13:27:49;12.90;99.90
26599;DHT22;14240;51.064;16.612;2024-02-14T13:30:15;12.90;99.90
26599;DHT22;14240;51.064;16.612;2024-02-14T13:32:41;12.90;99.90
26599;DHT22;14240;51.064;16.612;2024-02-14T13:35:08;12.80;99.90
26599;DHT22;14240;51.064;16.612;2024-02-14T13:37:34;12.80;99.90
26599;DHT22;14240;51.064;16.612;2024-02-14T13:40:00;12.80;99.90
26599;DHT22;14240;51.064;16.612;2024-02-14T13:42:29;12.80;99.90
26599;DHT22;14240;51.064;16.612;2024-02-14T13:44:55;12.80;99.90
26599;DHT22;14240;51.064;16.612;2024-02-14T13:47:21;12.70;99.90
26599;DHT22;14240;51.064;16.612;2024-02-14T13:49:48;12.70;99.90
26599;DHT22;14240;51.064;16.612;2024-02-14T13:52:14;12.70;99.90
26599;DHT22;14240;51.064;16.612;2024-02-14T13:54:41;12.60;99.90
26599;DHT22;14240;51.064;16.612;2024-02-14T13:57:07;12.50;99.90
26599;DHT22;14240;51.064;16.612;2024-02-14T13:59:33;12.50;99.90
26599;DHT22;14240;51.064;16.612;2024-02-14T14:01:58;12.50;99.90
26599;DHT22;14240;51.064;16.612;2024-02-14T14:04:24;12.40;99.90
26599;DHT22;14240;51.064;16.612;2024-02-14T14:06:51;12.40;99.90
26599;DHT22;14240;51.064;16.612;2024-02-14T14:09:17;12.30;99.90
26599;DHT22;14240;51.064;16.612;2024-02-14T14:11:42;12.30;99.90
26599;DHT22;14240;51.064;16.612;2024-02-14T14:14:08;12.30;99.90
26599;DHT22;14240;51.064;16.612;2024-02-14T14:16:36;12.20;99.90
26599;DHT22;14240;51.064;16.612;2024-02-14T14:19:02;12.10;99.90
26599;DHT22;14240;51.064;16.612;2024-02-14T14:21:30;12.20;99.90
26599;DHT22;14240;51.064;16.612;2024-02-14T14:23:55;12.10;99.90
26599;DHT22;14240;51.064;16.612;2024-02-14T14:26:21;12.10;99.90
26599;DHT22;14240;51.064;16.612;2024-02-14T14:28:47;12.10;99.90
26599;DHT22;14240;51.064;16.612;2024-02-14T14:31:13;12.00;99.90
26599;DHT22;14240;51.064;16.612;2024-02-14T14:33:38;12.00;99.90
26599;DHT22;14240;51.064;16.612;2024-02-14T14:36:05;12.10;99.90
26599;DHT22;14240;51.064;16.612;2024-02-14T14:38:31;12.00;99.90
26599;DHT22;14240;51.064;16.612;2024-02-14T14:40:57;12.00;99.90
26599;DHT22;14240;51.064;16.612;2024-02-14T14:43:25;12.10;99.90
26599;DHT22;14240;51.064;16.612;2024-02-14T14:45:50;12.00;99.90
26599;DHT22;14240;51.064;16.612;2024-02-14T14:48:18;12.00;99.90
26599;DHT22;14240;51.064;16.612;2024-02-14T14:50:44;12.00;99.90
26599;DHT22;14240;51.064;16.612;2024-02-14T14:53:10;11.90;99.90
26599;DHT22;14240;51.064;16.612;2024-02-14T14:55:56;11.90;99.90
26599;DHT22;14240;51.064;16.612;2024-02-14T14:58:23;11.90;99.90
26599;DHT22;14240;51.064;16.612;2024-02-14T15:00:53;11.80;99.90
26599;DHT22;14240;51.064;16.612;2024-02-14T15:03:21;11.80;99.90
26599;DHT22;14240;51.064;16.612;2024-02-14T15:05:46;11.70;99.90
26599;DHT22;14240;51.064;16.612;2024-02-14T15:08:13;11.70;99.90
26599;DHT22;14240;51.064;16.612;2024-02-14T15:10:40;11.60;99.90
26599;DHT22;14240;51.064;16.612;2024-02-14T15:13:08;11.60;99.90
26599;DHT22;14240;51.064;16.612;2024-02-14T15:15:35;11.60;99.90
26599;DHT22;14240;51.064;16.612;2024-02-14T15:18:01;11.50;99.90
26599;DHT22;14240;51.064;16.612;2024-02-14T15:20:27;11.40;99.90
26599;DHT22;14240;51.064;16.612;2024-02-14T15:22:53;11.40;99.90